Time;durP1;ratioP1;P1;durP2;ratioP2;P2;SDS_P1;SDS_P2;PMS_P1;PMS_P2;Temp;Humidity;BMP_temperature;BMP_pressure;BME280_temperature;BME280_humidity;BME280_pressure;Samples;Min_cycle;Max_cycle;Signal;HPM_P1;HPM_P2
2021/11/19 00:00:54;;;;;;;;;;;;;;;1.15;100.00;99530.09;1548060;91;20133;-69
2021/11/19 00:03:21;;;;;;;;;;;;;;;1.05;100.00;99525.14;1578864;89;20093;-69
2021/11/19 00:05:48;;;;;;;;;;;;;;;0.99;100.00;99526.41;1587714;89;21168;-68
2021/11/19 00:08:17;;;;;;;;;;;;;;;0.88;100.00;99521.12;1567194;89;20642;-68
2021/11/19 00:10:43;;;;;;;;;;;;;;;0.77;100.00;99527.75;1576117;89;20117;-68
2021/11/19 00:13:09;;;;;;;;;;;;;;;0.67;100.00;99523.81;1578936;89;20419;-68
2021/11/19 00:15:36;;;;;;;;;;;;;;;0.59;100.00;99518.97;1579234;91;20125;-68
2021/11/19 00:18:02;;;;;;;;;;;;;;;0.57;100.00;99526.77;1586653;90;21861;-69
2021/11/19 00:20:29;;;;;;;;;;;;;;;0.53;100.00;99516.27;1587675;90;20113;-68
2021/11/19 00:22:57;;;;;;;;;;;;;;;0.45;100.00;99519.04;1571380;90;20096;-68
2021/11/19 00:25:23;;;;;;;;;;;;;;;0.44;100.00;99510.27;1567599;90;20126;-68
2021/11/19 00:27:50;;;;;;;;;;;;;;;0.43;100.00;99506.02;1583121;90;20397;-68
2021/11/19 00:30:17;;;;;;;;;;;;;;;0.40;100.00;99498.48;1584064;89;21232;-68
2021/11/19 00:32:44;;;;;;;;;;;;;;;0.40;100.00;99501.12;1584015;89;20596;-68
2021/11/19 00:35:11;;;;;;;;;;;;;;;0.38;100.00;99495.20;1581331;90;20138;-68
2021/11/19 00:37:39;;;;;;;;;;;;;;;0.37;100.00;99492.27;1593415;89;20123;-68
2021/11/19 00:40:07;;;;;;;;;;;;;;;0.33;100.00;99489.67;1605056;89;20134;-68
2021/11/19 00:42:34;;;;;;;;;;;;;;;0.25;100.00;99480.06;1580935;91;21728;-68
2021/11/19 00:45:01;;;;;;;;;;;;;;;0.24;100.00;99477.09;1603306;88;20447;-68
2021/11/19 00:47:27;;;;;;;;;;;;;;;0.20;100.00;99477.98;1577788;89;20129;-67
2021/11/19 00:49:55;;;;;;;;;;;;;;;0.17;100.00;99469.60;1578073;91;20498;-68
2021/11/19 00:52:23;;;;;;;;;;;;;;;0.11;100.00;99460.63;1641064;87;20462;-68
2021/11/19 00:54:50;;;;;;;;;;;;;;;0.08;100.00;99462.83;1641212;87;21118;-67
2021/11/19 00:57:16;;;;;;;;;;;;;;;0.03;100.00;99460.75;1604348;88;20195;-68
2021/11/19 00:59:43;;;;;;;;;;;;;;;-0.04;100.00;99450.13;1605144;89;20171;-69
2021/11/19 01:02:15;;;;;;;;;;;;;;;-0.01;100.00;99447.10;1603986;86;20516;-69
2021/11/19 01:04:41;;;;;;;;;;;;;;;0.03;100.00;99444.11;1580563;90;20092;-69
2021/11/19 01:07:11;;;;;;;;;;;;;;;0.06;100.00;99450.33;1604265;89;21766;-69
2021/11/19 01:09:41;;;;;;;;;;;;;;;0.09;100.00;99442.83;1604674;89;20126;-69
2021/11/19 01:12:09;;;;;;;;;;;;;;;0.13;100.00;99430.91;1587341;89;20130;-69
2021/11/19 01:14:40;;;;;;;;;;;;;;;0.21;100.00;99425.99;1580726;89;20082;-69
2021/11/19 01:17:13;;;;;;;;;;;;;;;0.26;100.00;99417.52;1607162;88;20464;-69
2021/11/19 01:19:49;;;;;;;;;;;;;;;0.29;100.00;99406.05;1577866;89;21815;-68
2021/11/19 01:22:19;;;;;;;;;;;;;;;0.35;100.00;99414.55;1580218;90;20124;-68
2021/11/19 01:24:46;;;;;;;;;;;;;;;0.38;100.00;99408.06;1607792;87;20422;-68
2021/11/19 01:27:13;;;;;;;;;;;;;;;0.39;100.00;99403.92;1603798;88;20127;-68
2021/11/19 01:29:40;;;;;;;;;;;;;;;0.39;100.00;99401.77;1604457;88;20130;-68
2021/11/19 01:32:10;;;;;;;;;;;;;;;0.39;100.00;99401.28;1604925;89;21134;-69
2021/11/19 01:34:56;;;;;;;;;;;;;;;0.36;100.00;99388.44;1605213;87;20154;-68
2021/11/19 01:37:28;;;;;;;;;;;;;;;0.38;100.00;99389.07;1562123;90;20099;-69
2021/11/19 01:40:12;;;;;;;;;;;;;;;0.39;100.00;99396.48;1604894;88;20246;-69
2021/11/19 01:42:46;;;;;;;;;;;;;;;0.39;100.00;99396.48;1638817;86;20173;-69
2021/11/19 01:45:24;;;;;;;;;;;;;;;0.32;100.00;99397.77;1638698;87;21110;-68
2021/11/19 01:47:53;;;;;;;;;;;;;;;0.23;100.00;99390.18;1609486;87;20155;-69
2021/11/19 01:50:34;;;;;;;;;;;;;;;0.09;100.00;99387.41;1605379;89;20321;-70
2021/11/19 01:53:22;;;;;;;;;;;;;;;-0.09;100.00;99386.55;1591184;90;20547;-70
2021/11/19 01:56:12;;;;;;;;;;;;;;;-0.23;100.00;99388.23;1603402;88;20159;-69
2021/11/19 01:58:48;;;;;;;;;;;;;;;-0.30;100.00;99382.06;1571015;89;21120;-69
2021/11/19 02:01:18;;;;;;;;;;;;;;;-0.38;100.00;99369.01;1591019;90;20102;-69
2021/11/19 02:03:51;;;;;;;;;;;;;;;-0.47;100.00;99363.53;1604735;88;20147;-69
2021/11/19 02:06:22;;;;;;;;;;;;;;;-0.50;100.00;99366.55;1605029;88;20581;-69
2021/11/19 02:08:51;;;;;;;;;;;;;;;-0.44;100.00;99371.09;1631547;85;20530;-69
2021/11/19 02:11:39;;;;;;;;;;;;;;;-0.46;100.00;99359.40;1604792;89;21100;-69
2021/11/19 02:14:17;;;;;;;;;;;;;;;-0.43;100.00;99360.84;1588978;88;20098;-69
2021/11/19 02:16:48;;;;;;;;;;;;;;;-0.43;100.00;99360.84;1604236;88;20523;-69
2021/11/19 02:19:32;;;;;;;;;;;;;;;-0.47;100.00;99346.39;1605623;88;20129;-68
2021/11/19 02:22:04;;;;;;;;;;;;;;;-0.56;100.00;99352.30;1578603;89;20199;-69
2021/11/19 02:24:41;;;;;;;;;;;;;;;-0.57;100.00;99352.47;1578158;89;21134;-68
2021/11/19 02:27:19;;;;;;;;;;;;;;;-0.56;100.00;99347.53;1584272;90;20401;-69
2021/11/19 02:29:56;;;;;;;;;;;;;;;-0.60;100.00;99344.95;1626724;86;20522;-69
2021/11/19 02:32:28;;;;;;;;;;;;;;;-0.62;100.00;99344.31;1510688;93;20203;-69
2021/11/19 02:34:57;;;;;;;;;;;;;;;-0.58;100.00;99345.58;1543047;91;20189;-69
2021/11/19 02:37:29;;;;;;;;;;;;;;;-0.46;100.00;99344.90;1541200;90;21148;-69
2021/11/19 02:40:00;;;;;;;;;;;;;;;-0.39;100.00;99343.66;1542692;92;20146;-70
2021/11/19 02:42:30;;;;;;;;;;;;;;;-0.31;100.00;99347.48;1517608;93;20407;-69
2021/11/19 02:45:13;;;;;;;;;;;;;;;-0.25;100.00;99339.30;1544975;91;20394;-69
2021/11/19 02:48:59;;;;;;;;;;;;;;;-0.18;100.00;99338.05;1488204;94;20186;-70
2021/11/19 02:52:37;;;;;;;;;;;;;;;-0.18;100.00;99324.87;1488238;94;21216;-70
2021/11/19 02:55:13;;;;;;;;;;;;;;;-0.20;100.00;99317.13;1488330;94;20098;-69
2021/11/19 02:57:43;;;;;;;;;;;;;;;-0.15;100.00;99306.01;1470612;96;20182;-69
2021/11/19 03:00:13;;;;;;;;;;;;;;;-0.10;100.00;99316.33;1488209;96;20438;-69
2021/11/19 03:02:51;;;;;;;;;;;;;;;-0.07;100.00;99309.85;1488615;95;20133;-69
2021/11/19 03:05:20;;;;;;;;;;;;;;;-0.06;100.00;99298.28;1488553;94;21745;-68
2021/11/19 03:07:47;;;;;;;;;;;;;;;-0.08;100.00;99305.56;1488131;95;20118;-68
2021/11/19 03:10:20;;;;;;;;;;;;;;;-0.07;100.00;99301.94;1510676;94;20169;-68
2021/11/19 03:12:47;;;;;;;;;;;;;;;-0.02;100.00;99300.86;1545202;92;20099;-69
2021/11/19 03:15:19;;;;;;;;;;;;;;;0.06;100.00;99297.27;1548790;91;20582;-68
2021/11/19 03:17:46;;;;;;;;;;;;;;;0.11;100.00;99282.47;1548754;91;21101;-68
2021/11/19 03:20:15;;;;;;;;;;;;;;;0.15;100.00;99273.68;1550037;92;20108;-68
2021/11/19 03:22:41;;;;;;;;;;;;;;;0.20;100.00;99281.33;1562533;89;20082;-68
2021/11/19 03:25:09;;;;;;;;;;;;;;;0.27;100.00;99273.94;1571600;89;20126;-68
2021/11/19 03:27:36;;;;;;;;;;;;;;;0.32;100.00;99271.05;1610928;87;20107;-68
2021/11/19 03:30:07;;;;;;;;;;;;;;;0.37;100.00;99269.95;1605353;86;21206;-68
2021/11/19 03:32:34;;;;;;;;;;;;;;;0.42;100.00;99265.41;1608716;87;20169;-68
2021/11/19 03:35:04;;;;;;;;;;;;;;;0.46;100.00;99265.83;1606129;86;20147;-68
2021/11/19 03:37:31;;;;;;;;;;;;;;;0.49;100.00;99266.27;1580011;90;20396;-68
2021/11/19 03:39:59;;;;;;;;;;;;;;;0.55;100.00;99256.23;1602511;88;20122;-68
2021/11/19 03:42:25;;;;;;;;;;;;;;;0.58;100.00;99254.51;1576503;89;20943;-68
2021/11/19 03:44:59;;;;;;;;;;;;;;;0.64;100.00;99252.93;1577789;89;20137;-68
2021/11/19 03:47:32;;;;;;;;;;;;;;;0.69;100.00;99251.02;1580603;90;20119;-68
2021/11/19 03:49:58;;;;;;;;;;;;;;;0.71;100.00;99233.13;1609016;88;20615;-68
2021/11/19 03:52:28;;;;;;;;;;;;;;;0.75;100.00;99226.44;1577016;89;20153;-68
2021/11/19 03:54:57;;;;;;;;;;;;;;;0.77;100.00;99226.55;1604250;89;21970;-68
2021/11/19 03:57:24;;;;;;;;;;;;;;;0.80;100.00;99227.98;1634909;88;20446;-68
2021/11/19 03:59:51;;;;;;;;;;;;;;;0.83;100.00;99224.45;1607662;88;20143;-68
2021/11/19 04:02:20;;;;;;;;;;;;;;;0.87;100.00;99223.53;1604885;89;20164;-68
2021/11/19 04:04:47;;;;;;;;;;;;;;;0.90;100.00;99211.23;1629836;87;20163;-68
2021/11/19 04:07:15;;;;;;;;;;;;;;;0.95;100.00;99215.42;1580582;90;21153;-69
2021/11/19 04:09:44;;;;;;;;;;;;;;;1.02;100.00;99213.61;1607558;89;20155;-68
2021/11/19 04:12:14;;;;;;;;;;;;;;;1.07;100.00;99207.21;1603457;88;20158;-68
2021/11/19 04:14:40;;;;;;;;;;;;;;;1.13;100.00;99200.33;1604794;89;20130;-68
2021/11/19 04:17:07;;;;;;;;;;;;;;;1.18;100.00;99199.73;1605045;89;20129;-69
2021/11/19 04:19:42;;;;;;;;;;;;;;;1.26;100.00;99199.53;1604539;89;21145;-70
2021/11/19 04:22:20;;;;;;;;;;;;;;;1.33;100.00;99197.70;1624287;86;20207;-70
2021/11/19 04:24:50;;;;;;;;;;;;;;;1.38;100.00;99203.20;1618538;86;20142;-69
2021/11/19 04:27:17;;;;;;;;;;;;;;;1.40;100.00;99199.84;1601178;89;20444;-68
2021/11/19 04:29:54;;;;;;;;;;;;;;;1.42;100.00;99200.95;1574062;90;20117;-69
2021/11/19 04:32:23;;;;;;;;;;;;;;;1.48;100.00;99200.16;1578773;90;21157;-68
2021/11/19 04:34:52;;;;;;;;;;;;;;;1.50;100.00;99194.16;1605481;87;20080;-69
2021/11/19 04:37:19;;;;;;;;;;;;;;;1.52;100.00;99189.48;1604740;89;20128;-68
2021/11/19 04:39:45;;;;;;;;;;;;;;;1.53;100.00;99185.80;1587037;90;20098;-68
2021/11/19 04:42:13;;;;;;;;;;;;;;;1.56;100.00;99180.61;1606495;87;20121;-68
2021/11/19 04:44:40;;;;;;;;;;;;;;;1.57;100.00;99184.39;1604560;89;21068;-68
2021/11/19 04:47:07;;;;;;;;;;;;;;;1.58;100.00;99180.71;1586869;90;20103;-68
2021/11/19 04:49:34;;;;;;;;;;;;;;;1.63;100.00;99186.72;1605457;89;20112;-70
2021/11/19 04:52:04;;;;;;;;;;;;;;;1.61;100.00;99176.33;1604580;88;20104;-69
2021/11/19 04:54:31;;;;;;;;;;;;;;;1.66;100.00;99179.69;1585528;89;20423;-70
2021/11/19 04:56:57;;;;;;;;;;;;;;;1.68;100.00;99168.39;1606655;88;21129;-69
2021/11/19 04:59:24;;;;;;;;;;;;;;;1.69;100.00;99162.07;1604832;88;20139;-69
2021/11/19 05:01:58;;;;;;;;;;;;;;;1.69;100.00;99165.55;1587138;90;20416;-69
2021/11/19 05:04:29;;;;;;;;;;;;;;;1.71;100.00;99153.42;1608676;87;20156;-68
2021/11/19 05:06:55;;;;;;;;;;;;;;;1.73;100.00;99151.39;1604673;88;20104;-69
2021/11/19 05:09:22;;;;;;;;;;;;;;;1.75;100.00;99144.58;1588535;90;21792;-69
2021/11/19 05:11:52;;;;;;;;;;;;;;;1.77;100.00;99149.97;1606643;88;20127;-69
2021/11/19 05:14:19;;;;;;;;;;;;;;;1.77;100.00;99146.52;1604583;88;20215;-70
2021/11/19 05:16:45;;;;;;;;;;;;;;;1.78;100.00;99141.52;1599950;89;20183;-70
2021/11/19 05:19:11;;;;;;;;;;;;;;;1.81;100.00;99145.06;1606656;87;20120;-70
2021/11/19 05:21:38;;;;;;;;;;;;;;;1.83;100.00;99148.32;1604850;88;21150;-70
2021/11/19 05:24:06;;;;;;;;;;;;;;;1.84;100.00;99140.70;1621482;87;20525;-69
2021/11/19 05:26:32;;;;;;;;;;;;;;;1.85;100.00;99143.64;1612043;86;20130;-70
2021/11/19 05:28:59;;;;;;;;;;;;;;;1.87;100.00;99138.95;1606644;89;20183;-70
2021/11/19 05:31:25;;;;;;;;;;;;;;;1.89;100.00;99134.28;1580358;89;20484;-70
2021/11/19 05:33:52;;;;;;;;;;;;;;;1.90;100.00;99131.92;1580056;89;21113;-70
2021/11/19 05:36:18;;;;;;;;;;;;;;;1.92;100.00;99129.88;1588512;88;20135;-70
2021/11/19 05:38:45;;;;;;;;;;;;;;;1.93;100.00;99124.87;1589166;88;20134;-69
2021/11/19 05:41:16;;;;;;;;;;;;;;;1.96;100.00;99119.19;1588108;89;20776;-71
2021/11/19 05:43:46;;;;;;;;;;;;;;;1.95;100.00;99112.77;1589634;89;20412;-71
2021/11/19 05:46:19;;;;;;;;;;;;;;;1.94;100.00;99110.64;1586378;89;20485;-71
2021/11/19 05:48:48;;;;;;;;;;;;;;;1.94;100.00;99117.26;1602963;88;20417;-71
2021/11/19 05:51:15;;;;;;;;;;;;;;;1.95;100.00;99112.77;1606293;88;20130;-70
2021/11/19 05:53:43;;;;;;;;;;;;;;;1.96;100.00;99101.98;1607749;88;20249;-70
2021/11/19 05:56:11;;;;;;;;;;;;;;;1.97;100.00;99102.28;1602387;88;20165;-71
2021/11/19 05:58:38;;;;;;;;;;;;;;;1.99;100.00;99090.17;1585941;89;21155;-70
2021/11/19 06:01:09;;;;;;;;;;;;;;;1.99;100.00;99075.61;1603304;88;20094;-70
2021/11/19 06:03:40;;;;;;;;;;;;;;;2.01;100.00;99083.64;1603979;88;20102;-70
2021/11/19 06:06:09;;;;;;;;;;;;;;;2.02;100.00;99077.31;1589197;88;20453;-70
2021/11/19 06:08:56;;;;;;;;;;;;;;;2.05;100.00;99062.84;1603628;88;20160;-70
2021/11/19 06:11:26;;;;;;;;;;;;;;;2.05;100.00;99057.03;1603572;89;21178;-70
2021/11/19 06:14:08;;;;;;;;;;;;;;;2.07;100.00;99053.66;1603383;88;20090;-70
2021/11/19 06:16:39;;;;;;;;;;;;;;;2.12;100.00;99056.49;1602638;88;20180;-69
2021/11/19 06:19:15;;;;;;;;;;;;;;;2.14;100.00;99046.50;1604763;88;20683;-70
2021/11/19 06:21:46;;;;;;;;;;;;;;;2.18;100.00;99038.97;1590670;89;20166;-69
2021/11/19 06:24:15;;;;;;;;;;;;;;;2.21;100.00;99037.73;1585884;90;21098;-70
2021/11/19 06:33:41;;;;;;;;;;;;;;;2.29;100.00;99040.93;1441654;98;20252;-71
2021/11/19 06:36:19;;;;;;;;;;;;;;;2.33;100.00;99032.87;1441308;98;20198;-71
2021/11/19 06:38:48;;;;;;;;;;;;;;;2.35;100.00;99034.80;1365949;103;20179;-71
2021/11/19 06:41:18;;;;;;;;;;;;;;;2.38;100.00;99031.39;1372518;103;20223;-71
2021/11/19 06:44:04;;;;;;;;;;;;;;;2.38;100.00;99028.26;1402512;101;20171;-69
2021/11/19 06:46:37;;;;;;;;;;;;;;;2.41;100.00;99025.70;1396922;101;20213;-71
2021/11/19 06:49:44;;;;;;;;;;;;;;;2.43;100.00;99024.45;1396816;101;20263;-71
2021/11/19 06:52:19;;;;;;;;;;;;;;;2.45;100.00;99027.71;1403039;100;21125;-71
2021/11/19 06:55:13;;;;;;;;;;;;;;;2.47;100.00;99017.69;1359365;103;20195;-71
2021/11/19 06:58:17;;;;;;;;;;;;;;;2.50;100.00;99022.58;1373246;102;20190;-64
2021/11/19 07:00:44;;;;;;;;;;;;;;;2.53;100.00;98999.62;1374713;103;20207;-67
2021/11/19 07:03:11;;;;;;;;;;;;;;;2.58;100.00;99012.23;1381022;103;20356;-66
2021/11/19 07:05:38;;;;;;;;;;;;;;;2.60;100.00;99009.34;1367325;103;21598;-66
2021/11/19 07:08:05;;;;;;;;;;;;;;;2.61;100.00;99005.17;1382040;103;20216;-66
2021/11/19 07:10:34;;;;;;;;;;;;;;;2.64;100.00;99002.60;1441743;97;20164;-66
2021/11/19 07:13:03;;;;;;;;;;;;;;;2.66;100.00;99004.00;1475709;96;20195;-67
2021/11/19 07:16:18;;;;;;;;;;;;;;;2.71;100.00;98994.89;1493145;92;20268;-65
2021/11/19 07:18:45;;;;;;;;;;;;;;;2.74;100.00;98989.19;1491844;93;21752;-67
2021/11/19 07:21:11;;;;;;;;;;;;;;;2.82;100.00;98989.42;1492158;94;20421;-67
2021/11/19 07:23:38;;;;;;;;;;;;;;;2.87;100.00;98985.60;1537025;92;20312;-66
2021/11/19 07:26:05;;;;;;;;;;;;;;;2.89;100.00;98977.41;1523660;92;20517;-70
2021/11/19 07:28:32;;;;;;;;;;;;;;;2.91;100.00;98970.06;1517796;94;20166;-69
2021/11/19 07:31:32;;;;;;;;;;;;;;;2.97;100.00;98976.63;1545718;91;21475;-70
2021/11/19 07:37:10;;;;;;;;;;;;;;;3.04;100.00;98968.62;1535260;93;20665;-70
2021/11/19 08:32:43;;;;;;;;;;;;;;;3.37;100.00;98890.53;1606053;89;20159;-68
2021/11/19 08:39:49;;;;;;;;;;;;;;;3.42;100.00;98893.32;1627525;88;20121;-69
2021/11/19 08:42:50;;;;;;;;;;;;;;;3.46;100.00;98895.03;1586839;89;20271;-68
2021/11/19 08:49:34;;;;;;;;;;;;;;;3.50;100.00;98890.34;1533265;93;20206;-70
2021/11/19 08:52:56;;;;;;;;;;;;;;;3.56;100.00;98886.02;1517384;94;20129;-69
2021/11/19 08:56:16;;;;;;;;;;;;;;;3.60;100.00;98869.42;1496859;96;20515;-68
2021/11/19 08:59:01;;;;;;;;;;;;;;;3.65;100.00;98868.23;1484162;95;21168;-69
2021/11/19 09:02:09;;;;;;;;;;;;;;;3.69;100.00;98864.59;1474400;96;20167;-68
2021/11/19 09:08:08;;;;;;;;;;;;;;;3.75;100.00;98857.56;1450773;97;20156;-69
2021/11/19 09:10:36;;;;;;;;;;;;;;;3.79;100.00;98854.23;1451010;99;20200;-68
2021/11/19 09:16:20;;;;;;;;;;;;;;;3.83;100.00;98838.15;1446133;97;20203;-69
2021/11/19 09:18:53;;;;;;;;;;;;;;;3.84;100.00;98842.41;1436571;97;20202;-68
2021/11/19 09:21:25;;;;;;;;;;;;;;;3.88;100.00;98838.80;1391908;102;20175;-69
2021/11/19 09:24:01;;;;;;;;;;;;;;;3.85;100.00;98835.28;1355109;104;20248;-68
2021/11/19 09:26:37;;;;;;;;;;;;;;;3.87;100.00;98831.86;1412740;100;21194;-68
2021/11/19 09:29:16;;;;;;;;;;;;;;;3.92;100.00;98840.47;1476699;95;20166;-69
2021/11/19 09:31:43;;;;;;;;;;;;;;;3.92;100.00;98822.72;1491136;95;20254;-68
2021/11/19 09:34:10;;;;;;;;;;;;;;;3.97;100.00;98825.49;1640149;87;20156;-69
2021/11/19 09:36:37;;;;;;;;;;;;;;;3.97;100.00;98818.85;1640135;87;20430;-69
2021/11/19 09:39:26;;;;;;;;;;;;;;;3.99;100.00;98812.80;1637466;86;21148;-70
2021/11/19 09:42:10;;;;;;;;;;;;;;;4.01;100.00;98813.88;1668936;85;20418;-69
2021/11/19 09:45:12;;;;;;;;;;;;;;;4.01;100.00;98806.72;1672366;82;20122;-69
2021/11/19 09:47:54;;;;;;;;;;;;;;;4.04;100.00;98804.95;1744790;80;20163;-68
2021/11/19 09:50:58;;;;;;;;;;;;;;;4.08;100.00;98794.14;1746901;82;20150;-69
2021/11/19 09:54:01;;;;;;;;;;;;;;;4.07;100.00;98791.73;1764374;80;21844;-68
2021/11/19 09:56:34;;;;;;;;;;;;;;;4.11;100.00;98790.74;1756345;80;20404;-68
2021/11/19 09:59:17;;;;;;;;;;;;;;;4.11;100.00;98772.95;1752850;82;20891;-68
2021/11/19 10:02:08;;;;;;;;;;;;;;;4.14;100.00;98774.34;1751984;81;20162;-68
2021/11/19 10:04:58;;;;;;;;;;;;;;;4.15;100.00;98771.98;1752564;81;20130;-69
2021/11/19 10:07:57;;;;;;;;;;;;;;;4.16;100.00;98766.42;1752729;82;21179;-69
2021/11/19 10:10:38;;;;;;;;;;;;;;;4.20;100.00;98768.92;1752995;82;20143;-68
2021/11/19 10:13:24;;;;;;;;;;;;;;;4.23;100.00;98764.47;1750868;82;20131;-68
2021/11/19 10:16:00;;;;;;;;;;;;;;;4.23;100.00;98755.70;1651467;85;20251;-69
2021/11/19 10:19:01;;;;;;;;;;;;;;;4.26;100.00;98757.38;1593189;88;20183;-70
2021/11/19 10:21:32;;;;;;;;;;;;;;;4.27;100.00;98749.69;1609883;87;21234;-70
2021/11/19 10:24:02;;;;;;;;;;;;;;;4.28;100.00;98714.10;1590644;89;20127;-70
2021/11/19 10:30:43;;;;;;;;;;;;;;;4.34;100.00;98737.63;1552885;90;20226;-69
2021/11/19 10:33:32;;;;;;;;;;;;;;;4.37;100.00;98730.50;1551157;92;20253;-68
2021/11/19 10:36:31;;;;;;;;;;;;;;;4.40;100.00;98730.03;1552667;92;20926;-69
2021/11/19 10:39:38;;;;;;;;;;;;;;;4.44;100.00;98721.09;1552526;91;20209;-70
2021/11/19 10:42:37;;;;;;;;;;;;;;;4.49;100.00;98718.00;1570372;91;20177;-70
2021/11/19 10:45:26;;;;;;;;;;;;;;;4.53;100.00;98717.00;1532265;92;20231;-69
2021/11/19 10:48:12;;;;;;;;;;;;;;;4.57;100.00;98720.02;1538507;91;20172;-69
2021/11/19 10:51:24;;;;;;;;;;;;;;;4.61;100.00;98719.31;1490034;95;20139;-69
2021/11/19 10:54:32;;;;;;;;;;;;;;;4.67;100.00;98722.34;1444665;97;20222;-69
2021/11/19 10:57:13;;;;;;;;;;;;;;;4.72;100.00;98715.00;1458644;98;20250;-70
2021/11/19 11:00:05;;;;;;;;;;;;;;;4.79;100.00;98721.52;1458504;95;20178;-69
2021/11/19 11:02:57;;;;;;;;;;;;;;;4.82;100.00;98711.73;1458653;98;20235;-69
2021/11/19 11:05:37;;;;;;;;;;;;;;;4.88;100.00;98706.81;1458750;97;21956;-68
2021/11/19 11:08:43;;;;;;;;;;;;;;;4.94;100.00;98707.17;1424667;99;20171;-70
2021/11/19 11:11:33;;;;;;;;;;;;;;;4.97;100.00;98709.88;1412692;101;20293;-69
2021/11/19 11:14:09;;;;;;;;;;;;;;;4.98;100.00;98710.98;1425636;100;20170;-69
2021/11/19 11:17:21;;;;;;;;;;;;;;;5.01;100.00;98705.18;1383243;102;20189;-69
2021/11/19 11:27:39;;;;;;;;;;;;;;;5.05;100.00;98693.03;1411424;100;20463;-71
2021/11/19 11:30:38;;;;;;;;;;;;;;;5.08;100.00;98682.44;1467097;95;20213;-69
2021/11/19 11:37:04;;;;;;;;;;;;;;;5.13;100.00;98690.50;1510048;94;21159;-68
2021/11/19 12:02:00;;;;;;;;;;;;;;;5.42;100.00;98698.45;1525746;93;20533;-69
2021/11/19 12:04:50;;;;;;;;;;;;;;;5.42;100.00;98701.91;1532871;91;20211;-70
2021/11/19 12:07:35;;;;;;;;;;;;;;;5.44;100.00;98706.48;1529254;89;20174;-70
2021/11/19 12:56:12;;;;;;;;;;;;;;;5.80;100.00;98705.70;1592116;88;20113;-70
2021/11/19 12:59:10;;;;;;;;;;;;;;;5.82;100.00;98710.79;1619106;86;20108;-70
2021/11/19 13:02:02;;;;;;;;;;;;;;;5.83;100.00;98715.89;1647862;85;20190;-70
2021/11/19 13:04:37;;;;;;;;;;;;;;;5.87;100.00;98722.84;1663496;85;21705;-72
2021/11/19 13:07:10;;;;;;;;;;;;;;;5.88;100.00;98715.96;1669900;85;20170;-70
2021/11/19 13:09:46;;;;;;;;;;;;;;;5.90;100.00;98705.84;1654962;85;20175;-70
2021/11/19 13:12:17;;;;;;;;;;;;;;;5.93;100.00;98712.57;1672321;85;20212;-70
2021/11/19 13:14:47;;;;;;;;;;;;;;;5.93;100.00;98717.90;1665008;85;20411;-70
2021/11/19 13:17:21;;;;;;;;;;;;;;;5.95;100.00;98717.13;1651213;85;21152;-70
2021/11/19 13:19:49;;;;;;;;;;;;;;;5.95;100.00;98723.30;1657719;85;20099;-71
2021/11/19 13:22:36;;;;;;;;;;;;;;;5.96;100.00;98722.77;1666444;85;20098;-70
2021/11/19 13:25:34;;;;;;;;;;;;;;;5.97;100.00;98721.70;1655247;85;20164;-67
2021/11/19 13:28:01;;;;;;;;;;;;;;;5.96;100.00;98714.77;1618444;86;20106;-68
2021/11/19 13:33:24;;;;;;;;;;;;;;;5.99;100.00;98718.27;1651870;86;20228;-68
2021/11/19 13:36:13;;;;;;;;;;;;;;;6.03;100.00;98715.91;1652054;86;20412;-70
2021/11/19 13:39:04;;;;;;;;;;;;;;;6.04;100.00;98714.88;1650961;86;20198;-70
2021/11/19 13:41:31;;;;;;;;;;;;;;;6.05;100.00;98721.30;1629408;86;20188;-70
2021/11/19 13:43:57;;;;;;;;;;;;;;;6.07;100.00;98723.70;1639238;87;21129;-69
2021/11/19 13:46:45;;;;;;;;;;;;;;;6.06;100.00;98722.10;1638582;86;20494;-68
2021/11/19 13:49:27;;;;;;;;;;;;;;;6.07;100.00;98728.50;1640427;87;20080;-69
2021/11/19 13:52:09;;;;;;;;;;;;;;;6.06;100.00;98721.57;1587760;89;20447;-69
2021/11/19 13:54:39;;;;;;;;;;;;;;;6.07;100.00;98727.17;1603599;88;20154;-69
2021/11/19 13:57:12;;;;;;;;;;;;;;;6.07;100.00;98721.04;1590500;89;21080;-70
2021/11/19 13:59:48;;;;;;;;;;;;;;;6.06;100.00;98725.57;1605462;88;20197;-70
2021/11/19 14:02:27;;;;;;;;;;;;;;;6.04;100.00;98725.00;1664576;82;20125;-70
2021/11/19 14:04:57;;;;;;;;;;;;;;;6.06;100.00;98723.44;1721853;82;20085;-69
2021/11/19 14:07:28;;;;;;;;;;;;;;;6.07;100.00;98735.16;1727246;83;20382;-68
2021/11/19 14:10:05;;;;;;;;;;;;;;;6.05;100.00;98723.97;1739489;81;21737;-68
2021/11/19 14:12:36;;;;;;;;;;;;;;;6.08;100.00;98726.14;1757123;81;20431;-68
2021/11/19 14:15:26;;;;;;;;;;;;;;;6.07;100.00;98728.50;1690020;85;20202;-69
2021/11/19 14:18:11;;;;;;;;;;;;;;;6.08;100.00;98729.33;1690167;83;20456;-69
2021/11/19 14:23:25;;;;;;;;;;;;;;;6.07;100.00;98727.17;1690160;85;21145;-68
2021/11/19 14:25:55;;;;;;;;;;;;;;;6.08;100.00;98732.80;1690226;85;20096;-68
2021/11/19 14:28:37;;;;;;;;;;;;;;;6.08;100.00;98731.47;1698875;82;20481;-69
2021/11/19 14:31:12;;;;;;;;;;;;;;;6.08;100.00;98735.46;1706594;83;20731;-70
2021/11/19 14:34:05;;;;;;;;;;;;;;;6.07;100.00;98728.50;1706401;83;20207;-69
2021/11/19 14:36:44;;;;;;;;;;;;;;;6.07;100.00;98733.83;1695249;83;20524;-68
2021/11/19 14:39:14;;;;;;;;;;;;;;;6.10;100.00;98733.87;1708975;84;20114;-69
2021/11/19 14:41:53;;;;;;;;;;;;;;;6.08;100.00;98726.14;1687165;83;20172;-69
2021/11/19 14:44:32;;;;;;;;;;;;;;;6.09;100.00;98734.40;1680430;84;20467;-68
2021/11/19 14:47:01;;;;;;;;;;;;;;;6.11;100.00;98733.63;1693478;84;20218;-68
2021/11/19 14:49:40;;;;;;;;;;;;;;;6.12;100.00;98735.23;1691406;83;21138;-68
2021/11/19 14:52:21;;;;;;;;;;;;;;;6.13;100.00;98730.20;1668128;85;20077;-68
2021/11/19 14:54:51;;;;;;;;;;;;;;;6.14;100.00;98727.81;1663945;85;20236;-66
2021/11/19 14:57:40;;;;;;;;;;;;;;;6.16;100.00;98732.38;1678886;85;20133;-70
2021/11/19 15:00:10;;;;;;;;;;;;;;;6.15;100.00;98726.77;1679732;85;20226;-69
2021/11/19 15:02:41;;;;;;;;;;;;;;;6.14;100.00;98717.68;1680139;84;21066;-67
2021/11/19 15:05:17;;;;;;;;;;;;;;;6.13;100.00;98722.74;1659611;85;20178;-65
2021/11/19 15:07:51;;;;;;;;;;;;;;;6.11;100.00;98730.97;1663850;86;20153;-62
2021/11/19 15:10:34;;;;;;;;;;;;;;;6.13;100.00;98730.20;1671385;83;20470;-64
2021/11/19 15:13:24;;;;;;;;;;;;;;;6.14;100.00;98724.34;1719976;83;20479;-66
2021/11/19 15:16:01;;;;;;;;;;;;;;;6.14;100.00;98733.67;1727731;81;21947;-69
2021/11/19 15:18:40;;;;;;;;;;;;;;;6.15;100.00;98722.78;1724918;83;20148;-69
2021/11/19 15:21:23;;;;;;;;;;;;;;;6.16;100.00;98726.24;1699203;83;20769;-67
2021/11/19 15:24:11;;;;;;;;;;;;;;;6.18;100.00;98729.47;1724313;83;20407;-65
2021/11/19 15:26:42;;;;;;;;;;;;;;;6.17;100.00;98726.51;1720367;82;38633;-66
2021/11/19 15:29:21;;;;;;;;;;;;;;;6.19;100.00;98731.08;1725019;83;21085;-67
2021/11/19 15:31:52;;;;;;;;;;;;;;;6.20;100.00;98735.37;1725563;83;20073;-68
2021/11/19 15:34:42;;;;;;;;;;;;;;;6.19;100.00;98727.08;1724610;83;20175;-68
2021/11/19 15:37:18;;;;;;;;;;;;;;;6.21;100.00;98735.64;1763608;79;20090;-66
2021/11/19 15:39:47;;;;;;;;;;;;;;;6.21;100.00;98721.78;1684180;83;20447;-65
2021/11/19 15:42:14;;;;;;;;;;;;;;;6.21;100.00;98712.45;1684534;84;21125;-66
2021/11/19 15:44:41;;;;;;;;;;;;;;;6.21;100.00;98717.78;1693285;83;20230;-64
2021/11/19 15:47:09;;;;;;;;;;;;;;;6.21;100.00;98707.66;1679613;83;20400;-67
2021/11/19 15:49:38;;;;;;;;;;;;;;;6.22;100.00;98714.59;1683003;83;20128;-66
2021/11/19 15:52:18;;;;;;;;;;;;;;;6.21;100.00;98709.79;1683513;83;20213;-68
2021/11/19 15:59:23;;;;;;;;;;;;;;;6.16;100.00;98695.06;1611240;87;20236;-68
2021/11/19 16:02:04;;;;;;;;;;;;;;;6.14;100.00;98703.03;1611375;88;20228;-67
2021/11/19 16:05:08;;;;;;;;;;;;;;;6.12;100.00;98704.59;1612886;89;20089;-68
2021/11/19 16:07:57;;;;;;;;;;;;;;;6.11;100.00;98698.20;1612838;89;20148;-69
2021/11/19 16:10:48;;;;;;;;;;;;;;;6.12;100.00;98707.26;1589224;89;21129;-69
2021/11/19 16:13:21;;;;;;;;;;;;;;;6.10;100.00;98713.38;1610395;87;20168;-66
2021/11/19 16:15:50;;;;;;;;;;;;;;;6.08;100.00;98716.81;1614171;87;20193;-68
2021/11/19 16:18:31;;;;;;;;;;;;;;;6.08;100.00;98718.14;1621436;87;20203;-69
2021/11/19 16:20:57;;;;;;;;;;;;;;;6.09;100.00;98721.08;1608541;87;20180;-65
2021/11/19 16:23:24;;;;;;;;;;;;;;;6.06;100.00;98710.91;1609032;89;21728;-65